Weather at Iskandar Airport

Public forecast

Using degrees Celsius for public forecast. Weather courtesy of forecast.io.

Closest aviation weather report (METAR) to Iskandar Airport

Closest report is Sultan Aji Muhammad Sulaiman Sepinggan International Airport, 325.0 nm (601.8 km) ENE.

2024/04/16 18:00 (retrieved 22 minutes ago)

WALL 161800Z 00000KT 9000 SCT016 26/24 Q1008 NOSIG

Closest aviation forecast (TAF) to Iskandar Airport

Closest forecast is Syamsudin Noor International Airport, 190.5 nm (352.8 km) ESE.

2024/04/16 18:30 (retrieved 0 seconds ago)

TAF WAOO 161700Z 1618/1718 04005KT 9999 SCT017 TEMPO 1706/1710 21010KT 3000 TSRA FEW015CB